Thursday, May 28, 2015, 5:59 PM EDT

KLNS, Lancaster Airport

Location: Lititz, PA, United States Lat: 40.117
Local Time: 5:59 PM EDT (21:59 GMT) Lon: -76.3
Time Zone: US/Eastern Elev: 403 ft

Show me the last for .
Show Decoded

2015-05-28 16:53 METAR KLNS 282053Z 34012KT 10SM CLR 30/15 A3017 RMK AO2 SLP212 T03000150 58002 =
2015-05-28 15:53 METAR KLNS 281953Z 32009G15KT 10SM FEW055 30/16 A3018 RMK AO2 SLP215 T03000161 =
2015-05-28 14:53 METAR KLNS 281853Z 33008KT 10SM BKN047 29/17 A3017 RMK AO2 SLP214 T02940167 =
2015-05-28 13:53 METAR KLNS 281753Z 32009KT 10SM SCT042 30/18 A3017 RMK AO2 SLP214 T03000178
                 10300 20211 58003 =
2015-05-28 12:53 METAR KLNS 281653Z 28008KT 10SM FEW036 28/18 A3018 RMK AO2 SLP217 T02830183 =
2015-05-28 11:53 METAR KLNS 281553Z 34008KT 8SM SCT033 28/19 A3018 RMK AO2 SLP217 T02830189 =
2015-05-28 10:53 METAR KLNS 281453Z 29005KT 6SM HZ CLR 27/19 A3018 RMK AO2 SLP218 T02670194 50004
                 =
2015-05-28 09:53 METAR KLNS 281353Z 00000KT 4SM HZ SCT012 24/20 A3019 RMK AO2 SLP219 T02440200 =
2015-05-28 09:00 METAR KLNS 281300Z 00000KT 4SM HZ OVC010 23/20 A3018 RMK AO2 CIG 008V012
                 T02280200 =
2015-05-28 08:53 METAR KLNS 281253Z 00000KT 4SM BR OVC008 23/21 A3018 RMK AO2 CIG 008V012 SLP218
                 T02280206 =
2015-05-28 07:53 METAR KLNS 281153Z 21005KT 3SM BR OVC006 21/20 A3017 RMK AO2 SLP215 70004
                 T02110200 10217 20183 51016 =
2015-05-28 06:53 METAR KLNS 281053Z 15003KT 3SM BR OVC007 21/20 A3015 RMK AO2 SLP209 T02110200 =
2015-05-28 05:53 METAR KLNS 280953Z 04003KT 2 1/2SM BR OVC005 20/19 A3015 RMK AO2 SLP206
                 T02000189 =
2015-05-28 04:53 METAR KLNS 280853Z 23004KT 4SM BR OVC005 21/20 A3012 RMK AO2 SLP199 T02060200
                 55002 =
2015-05-28 03:53 METAR KLNS 280753Z 22004KT 4SM BR OVC005 21/20 A3012 RMK AO2 SLP198 T02110200 =
2015-05-28 03:06 METAR KLNS 280706Z 00000KT 4SM BR BKN009 18/18 A3012 RMK AO2 T01830183 =
2015-05-28 02:53 METAR KLNS 280653Z 13003KT 4SM BR FEW009 18/18 A3012 RMK AO2 SLP197 T01830178 =
2015-05-28 00:53 METAR KLNS 280453Z 00000KT 9SM CLR 19/18 A3013 RMK AO2 SLP200 T01940183
                 403000183 =
2015-05-27 23:53 METAR KLNS 280353Z 00000KT 9SM CLR 19/18 A3015 RMK AO2 SLP205 T01890178 =
2015-05-27 22:53 METAR KLNS 280253Z 00000KT 10SM CLR 19/18 A3015 RMK AO2 SLP207 T01940183 51013 =
2015-05-27 21:53 METAR KLNS 280153Z 11004KT 10SM BKN080 20/18 A3015 RMK AO2 SLP207 T02000183 =
2015-05-27 20:53 METAR KLNS 280053Z 00000KT 10SM CLR 21/18 A3012 RMK AO2 SLP199 T02110183 =
2015-05-27 19:53 METAR KLNS 272353Z 24004KT 10SM CLR 23/19 A3011 RMK AO2 SLP194 60004 T02330189
                 10300 20206 58002 =
2015-05-27 18:53 METAR KLNS 272253Z 24003KT 10SM FEW110 23/18 A3012 RMK AO2 SLP195 T02330183 =

Support USWX by starting your Amazon purchase here.